Time;durP1;ratioP1;P1;durP2;ratioP2;P2;SDS_P1;SDS_P2;PMS_P1;PMS_P2;Temp;Humidity;BMP_temperature;BMP_pressure;BME280_temperature;BME280_humidity;BME280_pressure;Samples;Min_cycle;Max_cycle;Signal;HPM_P1;HPM_P2
2021/03/21 00:00:59;;;;;;;5.10;4.77;;;;;;;;;;2079500;28;20219;-62
2021/03/21 00:01:59;;;;;;;5.20;4.70;;;;;;;;;;2101660;22;20242;-57
2021/03/21 00:02:59;;;;;;;4.80;4.50;;;;;;;;;;2081621;28;20198;-55
2021/03/21 00:04:00;;;;;;;5.00;4.60;;;;;;;;;;2085784;28;20289;-56
2021/03/21 00:05:00;;;;;;;4.70;4.20;;;;;;;;;;2080656;28;20560;-61
2021/03/21 00:06:01;;;;;;;4.57;4.27;;;;;;;;;;2087382;28;20180;-59
2021/03/21 00:07:01;;;;;;;4.50;4.10;;;;;;;;;;2089738;28;20175;-60
2021/03/21 00:08:03;;;;;;;4.57;4.27;;;;;;;;;;2087063;28;20718;-58
2021/03/21 00:09:04;;;;;;;4.93;4.60;;;;;;;;;;2087465;28;20172;-60
2021/03/21 00:10:04;;;;;;;4.57;4.27;;;;;;;;;;2092083;28;20180;-61
2021/03/21 00:11:06;;;;;;;5.20;4.80;;;;;;;;;;2092132;28;20164;-58
2021/03/21 00:12:07;;;;;;;4.63;4.27;;;;;;;;;;2093798;28;20593;-58
2021/03/21 00:13:07;;;;;;;5.20;4.70;;;;;;;;;;2089307;28;20253;-56
2021/03/21 00:14:08;;;;;;;5.00;4.60;;;;;;;;;;2090874;28;20201;-59
2021/03/21 00:15:08;;;;;;;4.37;4.03;;;;;;;;;;2089962;28;20255;-59
2021/03/21 00:16:09;;;;;;;4.80;4.40;;;;;;;;;;2088940;28;20262;-59
2021/03/21 00:17:09;;;;;;;5.10;4.60;;;;;;;;;;2091635;28;20239;-58
2021/03/21 00:18:09;;;;;;;5.40;4.90;;;;;;;;;;2091910;28;20175;-58
2021/03/21 00:19:10;;;;;;;4.90;4.50;;;;;;;;;;2090529;28;20183;-61
2021/03/21 00:20:11;;;;;;;5.20;4.80;;;;;;;;;;2088594;28;20233;-60
2021/03/21 00:21:12;;;;;;;3.93;3.63;;;;;;;;;;2089519;28;20573;-59
2021/03/21 00:22:12;;;;;;;4.20;3.90;;;;;;;;;;2090566;28;20286;-58
2021/03/21 00:23:13;;;;;;;4.23;3.90;;;;;;;;;;2089067;28;20188;-59
2021/03/21 00:24:13;;;;;;;4.40;4.10;;;;;;;;;;2090021;28;20206;-59
2021/03/21 00:25:16;;;;;;;4.67;4.27;;;;;;;;;;2089093;28;20172;-57
2021/03/21 00:26:16;;;;;;;4.53;4.13;;;;;;;;;;2089647;28;20184;-60
2021/03/21 00:27:17;;;;;;;4.87;4.57;;;;;;;;;;2088393;28;20195;-60
2021/03/21 00:28:19;;;;;;;4.90;4.50;;;;;;;;;;2088687;28;20207;-59
2021/03/21 00:29:19;;;;;;;5.47;4.40;;;;;;;;;;2090321;28;20289;-58
2021/03/21 00:30:30;;;;;;;5.23;4.43;;;;;;;;;;2089802;28;20249;-61
2021/03/21 00:31:31;;;;;;;5.50;5.03;;;;;;;;;;2089091;28;20178;-59
2021/03/21 00:32:31;;;;;;;5.43;4.93;;;;;;;;;;2089222;28;20238;-59
2021/03/21 00:33:33;;;;;;;5.33;4.83;;;;;;;;;;2089454;28;20279;-59
2021/03/21 00:34:33;;;;;;;5.70;5.20;;;;;;;;;;2090092;28;20179;-60
2021/03/21 00:35:33;;;;;;;5.20;4.83;;;;;;;;;;2088641;28;20222;-59
2021/03/21 00:36:34;;;;;;;6.17;5.57;;;;;;;;;;2090277;28;20187;-59
2021/03/21 00:37:34;;;;;;;6.03;5.63;;;;;;;;;;2089812;28;20182;-59
2021/03/21 00:38:36;;;;;;;5.70;5.30;;;;;;;;;;2092133;28;20261;-62
2021/03/21 00:39:36;;;;;;;5.47;5.07;;;;;;;;;;2090830;28;20574;-61
2021/03/21 00:40:37;;;;;;;5.87;5.43;;;;;;;;;;2090031;28;20180;-59
2021/03/21 00:41:37;;;;;;;6.63;6.13;;;;;;;;;;2079759;28;20184;-58
2021/03/21 00:42:37;;;;;;;6.70;6.17;;;;;;;;;;2089641;28;20223;-55
2021/03/21 00:43:38;;;;;;;5.87;5.47;;;;;;;;;;2088548;28;20266;-59
2021/03/21 00:44:38;;;;;;;5.67;5.27;;;;;;;;;;2088011;28;20293;-56
2021/03/21 00:45:39;;;;;;;7.13;6.43;;;;;;;;;;2089410;28;20275;-61
2021/03/21 00:46:39;;;;;;;6.67;6.07;;;;;;;;;;2088280;28;20184;-60
2021/03/21 00:47:39;;;;;;;6.53;5.93;;;;;;;;;;2089178;28;20213;-59
2021/03/21 00:48:42;;;;;;;5.77;5.37;;;;;;;;;;2089702;28;20648;-60
2021/03/21 00:49:43;;;;;;;7.07;6.47;;;;;;;;;;2090072;28;20184;-61
2021/03/21 00:50:44;;;;;;;7.00;6.43;;;;;;;;;;2088748;28;20201;-59
2021/03/21 00:51:44;;;;;;;7.07;6.43;;;;;;;;;;2086404;28;20176;-60
2021/03/21 00:52:44;;;;;;;7.27;6.67;;;;;;;;;;2090203;28;20257;-57
2021/03/21 00:53:45;;;;;;;7.47;6.87;;;;;;;;;;2091981;28;20654;-57
2021/03/21 00:54:45;;;;;;;7.50;6.90;;;;;;;;;;2091122;28;20225;-60
2021/03/21 00:55:46;;;;;;;6.77;6.17;;;;;;;;;;2092095;28;20199;-58
2021/03/21 00:56:47;;;;;;;8.27;7.53;;;;;;;;;;2090373;28;20232;-56
2021/03/21 00:57:47;;;;;;;8.00;7.20;;;;;;;;;;2088775;28;20171;-58
2021/03/21 00:58:48;;;;;;;10.10;7.37;;;;;;;;;;2090166;28;20183;-58
2021/03/21 00:59:48;;;;;;;8.87;8.07;;;;;;;;;;2090367;28;20648;-58
2021/03/21 01:00:53;;;;;;;8.50;7.80;;;;;;;;;;2089065;28;20237;-58
2021/03/21 01:01:53;;;;;;;8.80;8.00;;;;;;;;;;2085987;28;20180;-58
2021/03/21 01:02:54;;;;;;;8.00;7.40;;;;;;;;;;2088749;28;20198;-58
2021/03/21 01:03:54;;;;;;;9.03;8.23;;;;;;;;;;2087827;28;20282;-59
2021/03/21 01:04:55;;;;;;;9.00;8.30;;;;;;;;;;2089008;28;20266;-57
2021/03/21 01:06:00;;;;;;;9.47;8.60;;;;;;;;;;2089241;28;20167;-55
2021/03/21 01:07:00;;;;;;;8.17;7.47;;;;;;;;;;2088821;28;20183;-59
2021/03/21 01:08:00;;;;;;;9.50;8.60;;;;;;;;;;2088172;28;20179;-58
2021/03/21 01:09:04;;;;;;;8.77;8.00;;;;;;;;;;2088248;28;20270;-55
2021/03/21 01:10:05;;;;;;;8.43;7.73;;;;;;;;;;2089260;28;20636;-57
2021/03/21 01:11:10;;;;;;;8.63;7.93;;;;;;;;;;2088424;28;20206;-55
2021/03/21 01:12:11;;;;;;;8.50;7.80;;;;;;;;;;2086586;28;20230;-56
2021/03/21 01:13:11;;;;;;;9.60;8.60;;;;;;;;;;2089562;28;20176;-55
2021/03/21 01:14:11;;;;;;;14.50;8.50;;;;;;;;;;2089192;28;20179;-55
2021/03/21 01:15:12;;;;;;;9.00;8.20;;;;;;;;;;2089296;28;20237;-58
2021/03/21 01:16:15;;;;;;;12.30;9.30;;;;;;;;;;2089558;28;20212;-59
2021/03/21 01:17:15;;;;;;;8.70;8.00;;;;;;;;;;2087869;28;20187;-54
2021/03/21 01:18:20;;;;;;;9.17;8.37;;;;;;;;;;2079636;28;20180;-59
2021/03/21 01:19:21;;;;;;;9.10;8.20;;;;;;;;;;2086026;28;20241;-59
2021/03/21 01:20:23;;;;;;;8.90;8.20;;;;;;;;;;2089319;28;20182;-55
2021/03/21 01:21:24;;;;;;;9.27;8.47;;;;;;;;;;2088214;28;20187;-57
2021/03/21 01:22:24;;;;;;;8.73;7.97;;;;;;;;;;2089202;28;20683;-56
2021/03/21 01:23:25;;;;;;;8.20;7.50;;;;;;;;;;2089890;28;20167;-60
2021/03/21 01:24:25;;;;;;;8.90;8.20;;;;;;;;;;2088057;28;20211;-59
2021/03/21 01:25:26;;;;;;;8.83;8.03;;;;;;;;;;2090874;28;20208;-58
2021/03/21 01:26:27;;;;;;;8.60;7.70;;;;;;;;;;2090915;28;20185;-58
2021/03/21 01:27:27;;;;;;;9.00;8.20;;;;;;;;;;2089841;28;20167;-59
2021/03/21 01:28:29;;;;;;;9.20;7.83;;;;;;;;;;2089707;28;20191;-56
2021/03/21 01:29:29;;;;;;;10.40;8.43;;;;;;;;;;2090686;28;20190;-57
2021/03/21 01:30:30;;;;;;;8.97;8.13;;;;;;;;;;2091235;28;20178;-56
2021/03/21 01:31:30;;;;;;;9.00;8.30;;;;;;;;;;2090370;28;20357;-58
2021/03/21 01:32:30;;;;;;;9.57;8.53;;;;;;;;;;2091865;28;20186;-61
2021/03/21 01:33:32;;;;;;;9.20;8.43;;;;;;;;;;2090784;28;20721;-57
2021/03/21 01:34:32;;;;;;;9.57;8.77;;;;;;;;;;2081957;28;20706;-58
2021/03/21 01:35:32;;;;;;;9.00;8.27;;;;;;;;;;2089948;28;20191;-61
2021/03/21 01:36:35;;;;;;;9.37;8.47;;;;;;;;;;2090347;28;20188;-59
2021/03/21 01:37:35;;;;;;;9.30;8.50;;;;;;;;;;2090962;28;20264;-56
2021/03/21 01:38:35;;;;;;;9.53;8.63;;;;;;;;;;2091262;28;20174;-56
2021/03/21 01:39:36;;;;;;;10.27;8.40;;;;;;;;;;2091017;28;20186;-58
2021/03/21 01:40:36;;;;;;;8.90;8.20;;;;;;;;;;2090837;28;20243;-59
2021/03/21 01:41:38;;;;;;;10.07;9.17;;;;;;;;;;2086169;28;20167;-57
2021/03/21 01:42:40;;;;;;;9.73;8.83;;;;;;;;;;2090635;28;20206;-60
2021/03/21 01:43:41;;;;;;;9.83;8.83;;;;;;;;;;2090827;28;20287;-57
2021/03/21 01:44:43;;;;;;;10.73;9.83;;;;;;;;;;2090711;28;20175;-59
2021/03/21 01:45:47;;;;;;;10.30;9.27;;;;;;;;;;2089928;28;20210;-60
2021/03/21 01:46:48;;;;;;;10.23;9.30;;;;;;;;;;2090234;28;20274;-59
2021/03/21 01:47:48;;;;;;;10.40;9.50;;;;;;;;;;2089689;28;20187;-59
2021/03/21 01:48:55;;;;;;;10.13;9.13;;;;;;;;;;2089880;28;20186;-60
2021/03/21 01:49:56;;;;;;;10.03;9.17;;;;;;;;;;2091728;28;20259;-57
2021/03/21 01:50:59;;;;;;;10.07;9.17;;;;;;;;;;2089338;28;20180;-60
2021/03/21 01:52:01;;;;;;;9.63;8.60;;;;;;;;;;2089988;28;20258;-58
2021/03/21 01:53:02;;;;;;;10.53;9.53;;;;;;;;;;2090468;28;20263;-59
2021/03/21 01:54:05;;;;;;;9.40;8.27;;;;;;;;;;2088732;28;20172;-58
2021/03/21 01:55:07;;;;;;;10.50;9.50;;;;;;;;;;2089813;28;20282;-59
2021/03/21 01:56:08;;;;;;;10.77;9.67;;;;;;;;;;2090295;28;20198;-60
2021/03/21 01:57:09;;;;;;;10.80;9.80;;;;;;;;;;2089448;28;20927;-57
2021/03/21 01:58:10;;;;;;;12.27;10.13;;;;;;;;;;2091470;28;20269;-57
2021/03/21 01:59:17;;;;;;;10.23;9.23;;;;;;;;;;2089658;28;20182;-58
2021/03/21 02:00:19;;;;;;;9.67;8.77;;;;;;;;;;2087712;28;20191;-61
2021/03/21 02:01:23;;;;;;;10.17;9.17;;;;;;;;;;2089514;28;20684;-59
2021/03/21 02:02:23;;;;;;;11.70;9.83;;;;;;;;;;2088896;28;20214;-56
2021/03/21 02:03:23;;;;;;;10.70;9.77;;;;;;;;;;2083549;28;20731;-58
2021/03/21 02:04:24;;;;;;;10.27;9.33;;;;;;;;;;2089874;28;20199;-58
2021/03/21 02:05:27;;;;;;;10.33;9.40;;;;;;;;;;2097763;28;20205;-55
2021/03/21 02:06:32;;;;;;;10.13;9.20;;;;;;;;;;2089504;28;20329;-58
2021/03/21 02:07:38;;;;;;;10.57;9.17;;;;;;;;;;2089630;28;20164;-57
2021/03/21 02:08:44;;;;;;;10.27;9.27;;;;;;;;;;2086772;28;20305;-55
2021/03/21 02:09:55;;;;;;;9.60;8.70;;;;;;;;;;2091611;28;20175;-56
2021/03/21 02:11:03;;;;;;;10.03;9.13;;;;;;;;;;2090691;28;20180;-57
2021/03/21 02:12:13;;;;;;;9.47;8.67;;;;;;;;;;2090020;28;20187;-60
2021/03/21 02:13:29;;;;;;;8.93;8.10;;;;;;;;;;2092168;28;20168;-57
2021/03/21 02:14:38;;;;;;;9.27;8.53;;;;;;;;;;2093273;28;20193;-60
2021/03/21 02:15:38;;;;;;;9.27;8.37;;;;;;;;;;2089596;28;20184;-56
2021/03/21 02:16:42;;;;;;;9.83;8.93;;;;;;;;;;2090593;28;20194;-58
2021/03/21 02:17:53;;;;;;;8.83;8.03;;;;;;;;;;2089810;28;20175;-57
2021/03/21 02:19:07;;;;;;;10.23;9.23;;;;;;;;;;2091644;28;20254;-55
2021/03/21 02:20:20;;;;;;;9.60;8.70;;;;;;;;;;2088297;28;20187;-56
2021/03/21 02:21:26;;;;;;;9.50;8.50;;;;;;;;;;2081777;28;20579;-56
2021/03/21 02:22:28;;;;;;;9.70;8.70;;;;;;;;;;2090441;28;20199;-55
2021/03/21 02:23:50;;;;;;;9.83;8.93;;;;;;;;;;2090168;28;20774;-56
2021/03/21 02:25:08;;;;;;;9.67;8.60;;;;;;;;;;2090068;28;20238;-58
2021/03/21 02:26:08;;;;;;;9.87;8.97;;;;;;;;;;2091555;28;20603;-56
2021/03/21 02:27:11;;;;;;;10.53;9.30;;;;;;;;;;2080679;28;20188;-56
2021/03/21 02:28:23;;;;;;;9.10;8.30;;;;;;;;;;2081081;28;20191;-56
2021/03/21 02:29:38;;;;;;;10.13;9.03;;;;;;;;;;2088575;28;20282;-58
2021/03/21 02:30:40;;;;;;;10.27;8.70;;;;;;;;;;2091102;28;20178;-55
2021/03/21 02:31:45;;;;;;;9.97;8.97;;;;;;;;;;2090532;28;20207;-54
2021/03/21 02:32:53;;;;;;;9.57;8.63;;;;;;;;;;2091693;28;20277;-56
2021/03/21 02:33:59;;;;;;;9.70;8.80;;;;;;;;;;2096670;28;20625;-56
2021/03/21 02:34:59;;;;;;;11.00;9.90;;;;;;;;;;2097586;28;20217;-55
2021/03/21 02:35:59;;;;;;;9.73;8.73;;;;;;;;;;2087448;28;20259;-58
2021/03/21 02:37:04;;;;;;;10.43;9.43;;;;;;;;;;2091307;28;20671;-60
2021/03/21 02:38:14;;;;;;;11.07;9.87;;;;;;;;;;2091708;28;20176;-60
2021/03/21 02:39:20;;;;;;;10.17;9.17;;;;;;;;;;2091255;28;20175;-55
2021/03/21 02:40:39;;;;;;;9.93;8.80;;;;;;;;;;2096004;28;20276;-57
2021/03/21 02:41:42;;;;;;;9.73;8.73;;;;;;;;;;2086930;28;20198;-59
2021/03/21 02:42:44;;;;;;;10.40;9.40;;;;;;;;;;2091081;28;20704;-60
2021/03/21 02:43:54;;;;;;;12.97;10.60;;;;;;;;;;2091048;28;20176;-59
2021/03/21 02:44:59;;;;;;;10.77;9.67;;;;;;;;;;2090666;28;20225;-57
2021/03/21 02:46:03;;;;;;;12.67;10.40;;;;;;;;;;2091079;28;20234;-60
2021/03/21 02:47:07;;;;;;;11.27;10.27;;;;;;;;;;2089799;28;20180;-58
2021/03/21 02:48:12;;;;;;;10.63;9.63;;;;;;;;;;2090124;28;20179;-58
2021/03/21 02:49:12;;;;;;;11.03;9.93;;;;;;;;;;2091867;28;20628;-60
2021/03/21 02:50:19;;;;;;;11.30;10.20;;;;;;;;;;2093995;28;20172;-59
2021/03/21 02:51:24;;;;;;;10.23;9.23;;;;;;;;;;2089421;28;20735;-59
2021/03/21 02:52:30;;;;;;;12.23;9.87;;;;;;;;;;2092199;28;20199;-60
2021/03/21 02:53:39;;;;;;;10.57;9.47;;;;;;;;;;2091694;28;20183;-61
2021/03/21 02:54:56;;;;;;;10.63;9.53;;;;;;;;;;2087656;28;20176;-61
2021/03/21 02:55:58;;;;;;;11.27;9.30;;;;;;;;;;2092211;28;20164;-62
2021/03/21 02:57:04;;;;;;;10.70;9.07;;;;;;;;;;2091712;28;20211;-60
2021/03/21 02:58:43;;;;;;;10.50;9.57;;;;;;;;;;2090422;28;20236;-61
2021/03/21 02:59:54;;;;;;;9.63;8.57;;;;;;;;;;2067673;28;20233;-60
2021/03/21 03:00:56;;;;;;;9.83;8.87;;;;;;;;;;2067384;28;20214;-60
2021/03/21 03:01:59;;;;;;;10.70;9.67;;;;;;;;;;2064364;28;20285;-58
2021/03/21 03:03:01;;;;;;;9.83;8.83;;;;;;;;;;2066269;28;20177;-61
2021/03/21 03:04:05;;;;;;;9.23;8.33;;;;;;;;;;2066446;28;20284;-59
2021/03/21 03:05:08;;;;;;;10.17;9.17;;;;;;;;;;2065192;28;20628;-61
2021/03/21 03:06:11;;;;;;;9.43;8.53;;;;;;;;;;2090274;28;20238;-59
2021/03/21 03:07:23;;;;;;;9.60;8.70;;;;;;;;;;2091114;28;20183;-61
2021/03/21 03:08:23;;;;;;;9.07;8.20;;;;;;;;;;2087089;28;20559;-58
2021/03/21 03:09:26;;;;;;;9.47;8.57;;;;;;;;;;2091765;28;20179;-60
2021/03/21 03:10:31;;;;;;;9.00;8.20;;;;;;;;;;2090791;28;20167;-60
2021/03/21 03:11:45;;;;;;;9.70;8.80;;;;;;;;;;2087690;28;20246;-60
2021/03/21 03:12:48;;;;;;;8.87;8.03;;;;;;;;;;2088975;28;20205;-60
2021/03/21 03:13:55;;;;;;;8.27;7.50;;;;;;;;;;2090596;28;20175;-59
2021/03/21 03:14:55;;;;;;;8.47;7.40;;;;;;;;;;2091137;28;20168;-59
2021/03/21 03:16:01;;;;;;;9.70;8.67;;;;;;;;;;2090707;28;20183;-60
2021/03/21 03:17:04;;;;;;;9.00;8.20;;;;;;;;;;2090822;28;20172;-55
2021/03/21 03:18:17;;;;;;;9.57;8.63;;;;;;;;;;2089547;28;20184;-56
2021/03/21 03:19:18;;;;;;;8.77;7.97;;;;;;;;;;2090664;28;20226;-60
2021/03/21 03:20:18;;;;;;;8.97;8.17;;;;;;;;;;2090489;28;20690;-58
2021/03/21 03:21:29;;;;;;;9.07;8.13;;;;;;;;;;2090028;28;20168;-62
2021/03/21 03:22:41;;;;;;;8.17;7.37;;;;;;;;;;2087523;28;20196;-54
2021/03/21 03:23:52;;;;;;;8.00;7.20;;;;;;;;;;2087659;28;20685;-55
2021/03/21 03:25:07;;;;;;;8.20;7.47;;;;;;;;;;2089776;28;20168;-55
2021/03/21 03:26:10;;;;;;;8.50;7.70;;;;;;;;;;2089822;28;20163;-54
2021/03/21 03:27:13;;;;;;;8.37;7.57;;;;;;;;;;2088622;28;20179;-56
2021/03/21 03:28:20;;;;;;;8.63;7.83;;;;;;;;;;2089084;28;20560;-55
2021/03/21 03:29:22;;;;;;;8.83;7.93;;;;;;;;;;2087633;28;20167;-55
2021/03/21 03:30:26;;;;;;;8.67;7.90;;;;;;;;;;2089935;28;20172;-55
2021/03/21 03:31:26;;;;;;;9.43;8.43;;;;;;;;;;2089720;28;20172;-56
2021/03/21 03:32:27;;;;;;;8.77;7.97;;;;;;;;;;2088464;28;20199;-55
2021/03/21 03:33:28;;;;;;;8.57;7.87;;;;;;;;;;2088810;28;20172;-55
2021/03/21 03:34:30;;;;;;;8.60;7.73;;;;;;;;;;2089554;28;20191;-59
2021/03/21 03:35:30;;;;;;;7.90;7.17;;;;;;;;;;2090035;28;20184;-57
2021/03/21 03:36:32;;;;;;;8.60;7.80;;;;;;;;;;2089924;28;20175;-57
2021/03/21 03:37:32;;;;;;;8.70;7.90;;;;;;;;;;2090099;28;20188;-59
2021/03/21 03:38:34;;;;;;;9.37;8.47;;;;;;;;;;2089732;28;20211;-57
2021/03/21 03:39:35;;;;;;;8.60;7.80;;;;;;;;;;2090061;28;20251;-59
2021/03/21 03:40:37;;;;;;;8.10;7.40;;;;;;;;;;2087749;28;20194;-61
2021/03/21 03:41:39;;;;;;;8.43;7.60;;;;;;;;;;2089539;28;20183;-59
2021/03/21 03:42:59;;;;;;;9.00;8.10;;;;;;;;;;2087107;28;20615;-59
2021/03/21 03:44:02;;;;;;;7.43;6.73;;;;;;;;;;2087215;28;20270;-60
2021/03/21 03:45:17;;;;;;;8.47;6.93;;;;;;;;;;2089042;28;20225;-59
2021/03/21 03:46:37;;;;;;;8.43;7.63;;;;;;;;;;2086596;28;20190;-60
2021/03/21 03:47:46;;;;;;;7.90;7.23;;;;;;;;;;2089528;28;20219;-60
2021/03/21 03:49:05;;;;;;;7.93;7.30;;;;;;;;;;2089824;28;20204;-59
2021/03/21 03:50:17;;;;;;;8.33;7.50;;;;;;;;;;2089883;28;20531;-56
2021/03/21 03:51:26;;;;;;;7.70;6.97;;;;;;;;;;2089616;28;20258;-58
2021/03/21 03:52:44;;;;;;;8.27;7.47;;;;;;;;;;2087483;28;20191;-58
2021/03/21 03:53:44;;;;;;;8.17;7.50;;;;;;;;;;2086306;28;20266;-58
2021/03/21 03:54:50;;;;;;;8.63;7.67;;;;;;;;;;2089148;28;20176;-58
2021/03/21 03:56:13;;;;;;;7.57;6.97;;;;;;;;;;2088959;28;20152;-59
2021/03/21 03:57:26;;;;;;;8.50;7.67;;;;;;;;;;2086832;28;20640;-58
2021/03/21 03:58:45;;;;;;;8.27;7.47;;;;;;;;;;2086479;28;20219;-59
2021/03/21 04:00:07;;;;;;;8.03;7.33;;;;;;;;;;2087981;28;20176;-58
2021/03/21 04:01:10;;;;;;;8.53;7.73;;;;;;;;;;2089890;28;20169;-56
2021/03/21 04:02:14;;;;;;;9.60;8.70;;;;;;;;;;2088381;28;20588;-59
2021/03/21 04:03:20;;;;;;;8.97;8.07;;;;;;;;;;2088774;28;20222;-56
2021/03/21 04:04:40;;;;;;;9.10;8.30;;;;;;;;;;2094712;28;20230;-55
2021/03/21 04:05:43;;;;;;;8.73;7.83;;;;;;;;;;2086579;28;20152;-56
2021/03/21 04:06:49;;;;;;;9.37;8.47;;;;;;;;;;2089230;28;20179;-58
2021/03/21 04:07:53;;;;;;;8.80;8.00;;;;;;;;;;2089400;28;20635;-58
2021/03/21 04:09:00;;;;;;;8.90;8.07;;;;;;;;;;2089141;28;20254;-60
2021/03/21 04:10:08;;;;;;;9.10;8.30;;;;;;;;;;2086097;28;20178;-57
2021/03/21 04:11:14;;;;;;;9.50;8.53;;;;;;;;;;2089525;28;20168;-57
2021/03/21 04:12:17;;;;;;;8.97;8.07;;;;;;;;;;2086783;28;20575;-58
2021/03/21 04:13:22;;;;;;;9.63;8.70;;;;;;;;;;2089583;28;20202;-59
2021/03/21 04:14:36;;;;;;;10.27;8.80;;;;;;;;;;2087069;28;20241;-57
2021/03/21 04:15:39;;;;;;;9.40;8.40;;;;;;;;;;2081256;28;20243;-59
2021/03/21 04:16:42;;;;;;;8.33;7.43;;;;;;;;;;2082836;28;20640;-58
2021/03/21 04:17:54;;;;;;;10.20;7.77;;;;;;;;;;2085064;28;20187;-59
2021/03/21 04:19:02;;;;;;;8.83;8.00;;;;;;;;;;2092909;28;20183;-60
2021/03/21 04:20:15;;;;;;;8.50;7.57;;;;;;;;;;2091613;28;20176;-57
2021/03/21 04:21:15;;;;;;;8.63;7.37;;;;;;;;;;2088399;28;20605;-60
2021/03/21 04:22:18;;;;;;;9.17;8.23;;;;;;;;;;2088279;28;20199;-60
2021/03/21 04:23:22;;;;;;;9.67;8.67;;;;;;;;;;2089454;28;20179;-60
2021/03/21 04:24:31;;;;;;;10.33;8.63;;;;;;;;;;2089433;28;20550;-60
2021/03/21 04:25:35;;;;;;;10.90;8.87;;;;;;;;;;2087145;28;20266;-59
2021/03/21 04:26:54;;;;;;;10.20;8.63;;;;;;;;;;2089034;28;20222;-58
2021/03/21 04:27:54;;;;;;;9.63;8.63;;;;;;;;;;2087127;28;20159;-58
2021/03/21 04:28:57;;;;;;;9.97;8.63;;;;;;;;;;2088927;28;20222;-59
2021/03/21 04:30:09;;;;;;;12.17;7.70;;;;;;;;;;2089235;28;20266;-58
2021/03/21 04:31:13;;;;;;;9.97;7.97;;;;;;;;;;2089212;28;20167;-60
2021/03/21 04:32:18;;;;;;;9.03;7.30;;;;;;;;;;2088291;28;20675;-58
2021/03/21 04:33:21;;;;;;;9.47;8.03;;;;;;;;;;2087357;28;20550;-60
2021/03/21 04:34:23;;;;;;;9.40;8.00;;;;;;;;;;2088730;28;20659;-59
2021/03/21 04:35:26;;;;;;;8.73;7.83;;;;;;;;;;2080458;28;20192;-57
2021/03/21 04:36:32;;;;;;;8.83;7.67;;;;;;;;;;2088760;28;20178;-58
2021/03/21 04:37:33;;;;;;;7.80;7.00;;;;;;;;;;2088334;28;20187;-58
2021/03/21 04:38:35;;;;;;;8.03;7.23;;;;;;;;;;2089145;28;20262;-58
2021/03/21 04:39:36;;;;;;;9.30;7.10;;;;;;;;;;2089074;28;20654;-58
2021/03/21 04:40:37;;;;;;;9.37;8.47;;;;;;;;;;2087729;28;20234;-58
2021/03/21 04:41:40;;;;;;;9.30;7.37;;;;;;;;;;2088159;28;20186;-59
2021/03/21 04:42:47;;;;;;;9.03;7.40;;;;;;;;;;2087600;28;20224;-59
2021/03/21 04:43:50;;;;;;;9.60;7.57;;;;;;;;;;2088609;28;20644;-63
2021/03/21 04:44:54;;;;;;;9.07;8.03;;;;;;;;;;2089389;28;20175;-59
2021/03/21 04:45:56;;;;;;;8.07;7.27;;;;;;;;;;2088553;28;20171;-58
2021/03/21 04:47:00;;;;;;;8.13;7.33;;;;;;;;;;2080506;28;20173;-58
2021/03/21 04:48:04;;;;;;;9.07;8.17;;;;;;;;;;2079583;28;20184;-59
2021/03/21 04:49:05;;;;;;;7.57;6.83;;;;;;;;;;2088739;28;20699;-60
2021/03/21 04:50:05;;;;;;;10.20;8.00;;;;;;;;;;2088595;28;20168;-58
2021/03/21 04:51:12;;;;;;;9.80;7.93;;;;;;;;;;2089423;28;20175;-60
2021/03/21 04:52:19;;;;;;;8.37;7.40;;;;;;;;;;2087838;28;20621;-60
2021/03/21 04:53:35;;;;;;;8.40;7.53;;;;;;;;;;2087579;28;20644;-60
2021/03/21 04:54:38;;;;;;;9.63;7.47;;;;;;;;;;2087712;28;20287;-57
2021/03/21 04:55:39;;;;;;;8.30;7.07;;;;;;;;;;2088520;28;20178;-57
2021/03/21 04:56:46;;;;;;;8.77;7.40;;;;;;;;;;2086066;28;20167;-57
2021/03/21 04:57:47;;;;;;;7.60;6.87;;;;;;;;;;2087723;28;20179;-62
2021/03/21 04:58:50;;;;;;;8.13;7.33;;;;;;;;;;2086502;28;20217;-62
2021/03/21 04:59:51;;;;;;;8.03;6.87;;;;;;;;;;2088415;28;20293;-59
2021/03/21 05:00:51;;;;;;;9.53;7.97;;;;;;;;;;2088378;28;20183;-61
2021/03/21 05:02:04;;;;;;;8.67;7.73;;;;;;;;;;2087825;28;20684;-60
2021/03/21 05:03:11;;;;;;;8.73;7.27;;;;;;;;;;2088164;28;20171;-59
2021/03/21 05:04:17;;;;;;;8.00;7.27;;;;;;;;;;2086939;28;20199;-60
2021/03/21 05:05:29;;;;;;;10.63;7.23;;;;;;;;;;2088635;28;20194;-59
2021/03/21 05:06:35;;;;;;;10.17;6.77;;;;;;;;;;2088303;28;20271;-59
2021/03/21 05:07:45;;;;;;;10.10;6.87;;;;;;;;;;2088434;28;20672;-60
2021/03/21 05:08:49;;;;;;;7.33;6.53;;;;;;;;;;2085591;28;20173;-60
2021/03/21 05:09:52;;;;;;;12.23;7.50;;;;;;;;;;2089020;28;20202;-59
2021/03/21 05:10:55;;;;;;;10.23;7.17;;;;;;;;;;2087503;28;20186;-59
2021/03/21 05:11:57;;;;;;;9.50;7.50;;;;;;;;;;2088108;28;20176;-58
2021/03/21 05:12:57;;;;;;;9.00;7.20;;;;;;;;;;2088650;28;20198;-59
2021/03/21 05:14:01;;;;;;;12.30;7.67;;;;;;;;;;2089283;28;20393;-60
2021/03/21 05:15:07;;;;;;;8.93;7.97;;;;;;;;;;2079733;28;20645;-60
2021/03/21 05:16:13;;;;;;;11.97;7.63;;;;;;;;;;2080698;28;20238;-60
2021/03/21 05:17:32;;;;;;;9.60;7.40;;;;;;;;;;2087182;28;20627;-60
2021/03/21 05:18:42;;;;;;;9.17;7.10;;;;;;;;;;2089104;28;20260;-59
2021/03/21 05:19:46;;;;;;;8.83;6.93;;;;;;;;;;2089450;28;20656;-59
2021/03/21 05:20:47;;;;;;;9.90;7.73;;;;;;;;;;2089465;28;20182;-60
2021/03/21 05:21:55;;;;;;;10.47;6.83;;;;;;;;;;2089080;28;20682;-58
2021/03/21 05:23:02;;;;;;;8.33;7.50;;;;;;;;;;2089325;28;20179;-61
2021/03/21 05:24:18;;;;;;;9.37;6.50;;;;;;;;;;2089757;28;20282;-61
2021/03/21 05:25:27;;;;;;;9.13;6.50;;;;;;;;;;2089649;28;20257;-59
2021/03/21 05:26:39;;;;;;;10.70;6.17;;;;;;;;;;2088955;28;20210;-60
2021/03/21 05:27:43;;;;;;;6.73;5.33;;;;;;;;;;2086516;28;20739;-62
2021/03/21 05:29:16;;;;;;;11.30;7.00;;;;;;;;;;2086797;28;20175;-60
2021/03/21 05:30:18;;;;;;;7.93;6.10;;;;;;;;;;2058153;28;20174;-62
2021/03/21 05:31:18;;;;;;;10.67;6.00;;;;;;;;;;2068988;28;20196;-60
2021/03/21 05:32:19;;;;;;;8.07;6.17;;;;;;;;;;2087207;28;20256;-59
2021/03/21 05:33:20;;;;;;;10.97;6.73;;;;;;;;;;2087781;28;20245;-58
2021/03/21 05:34:20;;;;;;;10.27;6.73;;;;;;;;;;2088152;28;20657;-59
2021/03/21 05:35:22;;;;;;;10.20;6.60;;;;;;;;;;2089155;28;20203;-60
2021/03/21 05:36:31;;;;;;;10.47;6.73;;;;;;;;;;2089546;28;20188;-59
2021/03/21 05:37:31;;;;;;;6.80;6.10;;;;;;;;;;2089326;28;20259;-59
2021/03/21 05:39:01;;;;;;;9.50;6.13;;;;;;;;;;2089537;28;20179;-60
2021/03/21 05:40:02;;;;;;;9.10;6.23;;;;;;;;;;2079272;28;20211;-61
2021/03/21 05:41:05;;;;;;;7.30;6.27;;;;;;;;;;2089478;28;20186;-63
2021/03/21 05:42:20;;;;;;;7.53;6.00;;;;;;;;;;2089048;28;20164;-61
2021/03/21 05:43:39;;;;;;;6.77;6.07;;;;;;;;;;2089585;28;20797;-62
2021/03/21 05:44:44;;;;;;;8.80;6.40;;;;;;;;;;2088698;28;20318;-60
2021/03/21 05:45:44;;;;;;;8.47;6.17;;;;;;;;;;2088365;28;20179;-60
2021/03/21 05:47:03;;;;;;;9.03;6.67;;;;;;;;;;2088618;28;20562;-60
2021/03/21 05:48:19;;;;;;;6.90;6.30;;;;;;;;;;2087743;28;20179;-58
2021/03/21 05:49:27;;;;;;;10.83;6.37;;;;;;;;;;2087979;28;20176;-61
2021/03/21 05:50:30;;;;;;;13.30;6.77;;;;;;;;;;2089122;28;20258;-60
2021/03/21 05:51:49;;;;;;;9.83;7.40;;;;;;;;;;2088683;28;20187;-59
2021/03/21 05:53:01;;;;;;;8.33;7.27;;;;;;;;;;2088947;28;20261;-59
2021/03/21 05:54:20;;;;;;;7.83;6.70;;;;;;;;;;2089159;28;20202;-61
2021/03/21 05:55:39;;;;;;;9.97;7.90;;;;;;;;;;2088117;28;20179;-57
2021/03/21 05:56:58;;;;;;;8.57;7.13;;;;;;;;;;2088886;28;20633;-60
2021/03/21 05:57:58;;;;;;;7.13;6.43;;;;;;;;;;2088264;28;20222;-58
2021/03/21 05:59:10;;;;;;;7.57;6.67;;;;;;;;;;2088758;28;20171;-60
2021/03/21 06:00:17;;;;;;;7.73;6.80;;;;;;;;;;2088723;28;20176;-59
2021/03/21 06:01:31;;;;;;;7.33;6.30;;;;;;;;;;2086928;28;20241;-57
2021/03/21 06:02:34;;;;;;;8.70;6.60;;;;;;;;;;2085421;28;20211;-57
2021/03/21 06:03:53;;;;;;;7.47;6.67;;;;;;;;;;2089631;28;20190;-59
2021/03/21 06:05:12;;;;;;;7.63;6.13;;;;;;;;;;2090527;28;20187;-58
2021/03/21 06:06:31;;;;;;;7.53;5.77;;;;;;;;;;2090128;28;20577;-60
2021/03/21 06:07:44;;;;;;;7.03;5.93;;;;;;;;;;2088208;23;21374;-58
2021/03/21 06:09:04;;;;;;;6.53;5.83;;;;;;;;;;2073635;28;20204;-58
2021/03/21 06:10:23;;;;;;;8.40;5.57;;;;;;;;;;2074752;28;20172;-56
2021/03/21 06:11:29;;;;;;;8.30;5.80;;;;;;;;;;2074753;28;20180;-55
2021/03/21 06:12:32;;;;;;;7.60;5.37;;;;;;;;;;2075642;28;20235;-58
2021/03/21 06:13:51;;;;;;;6.73;5.73;;;;;;;;;;2075290;28;20573;-59
2021/03/21 06:14:51;;;;;;;10.20;6.33;;;;;;;;;;2077000;28;20259;-58
2021/03/21 06:16:16;;;;;;;6.43;5.83;;;;;;;;;;2078855;28;20259;-58
2021/03/21 06:17:19;;;;;;;6.50;5.77;;;;;;;;;;2078505;28;20187;-58
2021/03/21 06:18:38;;;;;;;7.67;5.50;;;;;;;;;;2077483;28;20676;-56
2021/03/21 06:19:48;;;;;;;7.47;5.03;;;;;;;;;;2074025;28;20177;-59
2021/03/21 06:20:51;;;;;;;8.77;6.57;;;;;;;;;;2074937;28;20192;-59
2021/03/21 06:22:06;;;;;;;7.77;6.17;;;;;;;;;;2076118;28;20223;-58
2021/03/21 06:23:42;;;;;;;7.17;6.47;;;;;;;;;;2075185;28;20181;-57
2021/03/21 06:24:57;;;;;;;9.80;6.47;;;;;;;;;;2064044;28;20244;-58
2021/03/21 06:26:13;;;;;;;8.90;6.20;;;;;;;;;;2062104;28;20669;-60
2021/03/21 06:27:52;;;;;;;6.23;5.63;;;;;;;;;;2067632;28;20197;-58
2021/03/21 06:29:01;;;;;;;7.33;5.80;;;;;;;;;;2055652;28;20198;-57
2021/03/21 06:30:18;;;;;;;7.97;5.10;;;;;;;;;;2055284;28;20233;-59
2021/03/21 06:31:37;;;;;;;7.97;5.80;;;;;;;;;;2054822;28;20174;-58
2021/03/21 06:32:40;;;;;;;6.57;5.23;;;;;;;;;;2056179;28;20588;-59